sensor_id;sensor_type;location;lat;lon;timestamp;P1;durP1;ratioP1;P2;durP2;ratioP2
20114;SDS011;10218;42.874;25.320;2023-10-19T00:01:58;11.83;;;10.17;;
20114;SDS011;10218;42.874;25.320;2023-10-19T00:04:25;14.50;;;10.20;;
20114;SDS011;10218;42.874;25.320;2023-10-19T00:06:52;13.13;;;10.30;;
20114;SDS011;10218;42.874;25.320;2023-10-19T00:09:19;13.10;;;10.03;;
20114;SDS011;10218;42.874;25.320;2023-10-19T00:11:47;15.30;;;11.27;;
20114;SDS011;10218;42.874;25.320;2023-10-19T00:14:18;14.67;;;11.07;;
20114;SDS011;10218;42.874;25.320;2023-10-19T00:16:45;20.80;;;11.30;;
20114;SDS011;10218;42.874;25.320;2023-10-19T00:19:17;16.07;;;11.53;;
20114;SDS011;10218;42.874;25.320;2023-10-19T00:21:46;17.57;;;10.80;;
20114;SDS011;10218;42.874;25.320;2023-10-19T00:24:22;16.30;;;11.43;;
20114;SDS011;10218;42.874;25.320;2023-10-19T00:26:50;15.17;;;10.70;;
20114;SDS011;10218;42.874;25.320;2023-10-19T00:29:20;20.03;;;12.83;;
20114;SDS011;10218;42.874;25.320;2023-10-19T00:32:00;18.30;;;11.90;;
20114;SDS011;10218;42.874;25.320;2023-10-19T00:34:29;14.93;;;11.90;;
20114;SDS011;10218;42.874;25.320;2023-10-19T00:36:56;14.33;;;10.73;;
20114;SDS011;10218;42.874;25.320;2023-10-19T00:39:24;14.80;;;10.93;;
20114;SDS011;10218;42.874;25.320;2023-10-19T00:41:51;14.97;;;11.03;;
20114;SDS011;10218;42.874;25.320;2023-10-19T00:44:22;16.97;;;11.77;;
20114;SDS011;10218;42.874;25.320;2023-10-19T00:46:51;17.30;;;11.97;;
20114;SDS011;10218;42.874;25.320;2023-10-19T00:49:30;16.00;;;11.90;;
20114;SDS011;10218;42.874;25.320;2023-10-19T00:51:58;20.53;;;12.53;;
20114;SDS011;10218;42.874;25.320;2023-10-19T00:54:39;16.97;;;12.40;;
20114;SDS011;10218;42.874;25.320;2023-10-19T00:57:09;18.07;;;12.80;;
20114;SDS011;10218;42.874;25.320;2023-10-19T00:59:40;19.03;;;13.00;;
20114;SDS011;10218;42.874;25.320;2023-10-19T01:02:17;20.33;;;12.73;;
20114;SDS011;10218;42.874;25.320;2023-10-19T01:04:46;15.73;;;12.43;;
20114;SDS011;10218;42.874;25.320;2023-10-19T01:07:22;17.33;;;12.67;;
20114;SDS011;10218;42.874;25.320;2023-10-19T01:09:53;17.07;;;12.70;;
20114;SDS011;10218;42.874;25.320;2023-10-19T01:12:26;19.23;;;13.60;;
20114;SDS011;10218;42.874;25.320;2023-10-19T01:15:06;17.27;;;12.27;;
20114;SDS011;10218;42.874;25.320;2023-10-19T01:17:40;17.07;;;13.17;;
20114;SDS011;10218;42.874;25.320;2023-10-19T01:20:13;17.10;;;12.20;;
20114;SDS011;10218;42.874;25.320;2023-10-19T01:23:09;14.83;;;12.27;;
20114;SDS011;10218;42.874;25.320;2023-10-19T01:28:26;17.70;;;13.07;;
20114;SDS011;10218;42.874;25.320;2023-10-19T01:31:17;16.00;;;12.00;;
20114;SDS011;10218;42.874;25.320;2023-10-19T01:33:55;16.87;;;12.87;;
20114;SDS011;10218;42.874;25.320;2023-10-19T01:36:28;17.87;;;12.87;;
20114;SDS011;10218;42.874;25.320;2023-10-19T01:38:59;18.67;;;13.33;;
20114;SDS011;10218;42.874;25.320;2023-10-19T01:41:27;18.83;;;13.07;;
20114;SDS011;10218;42.874;25.320;2023-10-19T01:43:57;15.77;;;12.33;;
20114;SDS011;10218;42.874;25.320;2023-10-19T01:46:31;18.53;;;13.40;;
20114;SDS011;10218;42.874;25.320;2023-10-19T01:49:00;17.80;;;13.03;;
20114;SDS011;10218;42.874;25.320;2023-10-19T01:51:30;16.83;;;12.67;;
20114;SDS011;10218;42.874;25.320;2023-10-19T01:54:00;18.77;;;13.60;;
20114;SDS011;10218;42.874;25.320;2023-10-19T01:56:27;19.70;;;13.67;;
20114;SDS011;10218;42.874;25.320;2023-10-19T01:58:55;15.07;;;11.97;;
20114;SDS011;10218;42.874;25.320;2023-10-19T02:01:24;15.27;;;11.90;;
20114;SDS011;10218;42.874;25.320;2023-10-19T02:03:55;17.37;;;12.07;;
20114;SDS011;10218;42.874;25.320;2023-10-19T02:06:27;19.13;;;12.23;;
20114;SDS011;10218;42.874;25.320;2023-10-19T02:09:02;14.40;;;11.70;;
20114;SDS011;10218;42.874;25.320;2023-10-19T02:11:42;15.57;;;11.90;;
20114;SDS011;10218;42.874;25.320;2023-10-19T02:14:09;14.87;;;11.87;;
20114;SDS011;10218;42.874;25.320;2023-10-19T02:16:46;15.90;;;12.73;;
20114;SDS011;10218;42.874;25.320;2023-10-19T02:19:18;13.63;;;11.70;;
20114;SDS011;10218;42.874;25.320;2023-10-19T02:21:47;15.13;;;11.87;;
20114;SDS011;10218;42.874;25.320;2023-10-19T02:24:25;13.80;;;11.67;;
20114;SDS011;10218;42.874;25.320;2023-10-19T02:26:56;15.17;;;12.43;;
20114;SDS011;10218;42.874;25.320;2023-10-19T02:29:24;16.40;;;12.43;;
20114;SDS011;10218;42.874;25.320;2023-10-19T02:31:55;16.90;;;12.50;;
20114;SDS011;10218;42.874;25.320;2023-10-19T02:34:24;16.57;;;12.07;;
20114;SDS011;10218;42.874;25.320;2023-10-19T02:36:51;15.23;;;11.73;;
20114;SDS011;10218;42.874;25.320;2023-10-19T02:39:20;15.03;;;11.97;;
20114;SDS011;10218;42.874;25.320;2023-10-19T02:41:48;16.00;;;12.17;;
20114;SDS011;10218;42.874;25.320;2023-10-19T02:44:18;15.67;;;11.10;;
20114;SDS011;10218;42.874;25.320;2023-10-19T02:46:46;16.87;;;11.30;;
20114;SDS011;10218;42.874;25.320;2023-10-19T02:49:17;15.17;;;11.77;;
20114;SDS011;10218;42.874;25.320;2023-10-19T02:51:47;15.17;;;12.33;;
20114;SDS011;10218;42.874;25.320;2023-10-19T02:54:17;16.17;;;11.60;;
20114;SDS011;10218;42.874;25.320;2023-10-19T02:56:50;14.43;;;11.53;;
20114;SDS011;10218;42.874;25.320;2023-10-19T02:59:26;13.97;;;11.37;;
20114;SDS011;10218;42.874;25.320;2023-10-19T03:01:56;15.13;;;11.43;;
20114;SDS011;10218;42.874;25.320;2023-10-19T03:04:28;14.77;;;11.97;;
20114;SDS011;10218;42.874;25.320;2023-10-19T03:06:56;13.93;;;11.47;;
20114;SDS011;10218;42.874;25.320;2023-10-19T03:09:24;13.90;;;11.07;;
20114;SDS011;10218;42.874;25.320;2023-10-19T03:11:54;15.07;;;11.67;;
20114;SDS011;10218;42.874;25.320;2023-10-19T03:14:26;15.90;;;12.10;;
20114;SDS011;10218;42.874;25.320;2023-10-19T03:16:54;14.17;;;10.83;;
20114;SDS011;10218;42.874;25.320;2023-10-19T03:19:22;12.37;;;11.07;;
20114;SDS011;10218;42.874;25.320;2023-10-19T03:21:52;13.83;;;11.50;;
20114;SDS011;10218;42.874;25.320;2023-10-19T03:24:21;18.57;;;12.53;;
20114;SDS011;10218;42.874;25.320;2023-10-19T03:27:08;15.47;;;12.67;;
20114;SDS011;10218;42.874;25.320;2023-10-19T03:29:58;17.17;;;12.53;;
20114;SDS011;10218;42.874;25.320;2023-10-19T03:32:26;19.07;;;13.60;;
20114;SDS011;10218;42.874;25.320;2023-10-19T03:34:55;17.43;;;13.53;;
20114;SDS011;10218;42.874;25.320;2023-10-19T03:37:23;17.37;;;14.00;;
20114;SDS011;10218;42.874;25.320;2023-10-19T03:39:52;20.03;;;14.63;;
20114;SDS011;10218;42.874;25.320;2023-10-19T03:42:22;17.70;;;14.47;;
20114;SDS011;10218;42.874;25.320;2023-10-19T03:44:53;18.13;;;14.40;;
20114;SDS011;10218;42.874;25.320;2023-10-19T03:47:20;16.93;;;13.20;;
20114;SDS011;10218;42.874;25.320;2023-10-19T03:49:52;15.27;;;11.33;;
20114;SDS011;10218;42.874;25.320;2023-10-19T03:52:20;16.70;;;12.17;;
20114;SDS011;10218;42.874;25.320;2023-10-19T03:54:48;13.27;;;11.27;;
20114;SDS011;10218;42.874;25.320;2023-10-19T03:57:16;14.40;;;11.60;;
20114;SDS011;10218;42.874;25.320;2023-10-19T03:59:51;13.43;;;11.53;;
20114;SDS011;10218;42.874;25.320;2023-10-19T04:02:23;14.47;;;10.73;;
20114;SDS011;10218;42.874;25.320;2023-10-19T04:04:51;14.47;;;11.50;;
20114;SDS011;10218;42.874;25.320;2023-10-19T04:07:19;12.90;;;11.07;;
20114;SDS011;10218;42.874;25.320;2023-10-19T04:09:49;14.03;;;11.03;;
20114;SDS011;10218;42.874;25.320;2023-10-19T04:12:36;14.07;;;10.37;;
20114;SDS011;10218;42.874;25.320;2023-10-19T04:15:05;12.17;;;10.80;;
20114;SDS011;10218;42.874;25.320;2023-10-19T04:17:53;12.37;;;10.50;;
20114;SDS011;10218;42.874;25.320;2023-10-19T04:20:21;11.50;;;10.10;;
20114;SDS011;10218;42.874;25.320;2023-10-19T04:22:52;15.20;;;11.03;;
20114;SDS011;10218;42.874;25.320;2023-10-19T04:25:20;13.53;;;10.10;;
20114;SDS011;10218;42.874;25.320;2023-10-19T04:27:51;14.47;;;9.67;;
20114;SDS011;10218;42.874;25.320;2023-10-19T04:30:18;11.50;;;9.77;;
20114;SDS011;10218;42.874;25.320;2023-10-19T04:32:49;12.23;;;10.10;;
20114;SDS011;10218;42.874;25.320;2023-10-19T04:35:17;12.87;;;9.93;;
20114;SDS011;10218;42.874;25.320;2023-10-19T04:37:51;12.57;;;10.40;;
20114;SDS011;10218;42.874;25.320;2023-10-19T04:40:20;12.37;;;9.80;;
20114;SDS011;10218;42.874;25.320;2023-10-19T04:42:48;12.50;;;10.00;;
20114;SDS011;10218;42.874;25.320;2023-10-19T04:45:17;14.83;;;9.93;;
20114;SDS011;10218;42.874;25.320;2023-10-19T04:47:44;13.63;;;9.93;;
20114;SDS011;10218;42.874;25.320;2023-10-19T04:50:13;13.50;;;10.30;;
20114;SDS011;10218;42.874;25.320;2023-10-19T04:52:40;14.47;;;9.50;;
20114;SDS011;10218;42.874;25.320;2023-10-19T04:55:07;11.43;;;9.20;;
20114;SDS011;10218;42.874;25.320;2023-10-19T04:57:34;11.77;;;9.90;;
20114;SDS011;10218;42.874;25.320;2023-10-19T05:00:02;10.40;;;8.73;;
20114;SDS011;10218;42.874;25.320;2023-10-19T05:02:30;12.20;;;10.17;;
20114;SDS011;10218;42.874;25.320;2023-10-19T05:04:57;12.90;;;9.77;;
20114;SDS011;10218;42.874;25.320;2023-10-19T05:07:24;11.20;;;9.10;;
20114;SDS011;10218;42.874;25.320;2023-10-19T05:09:51;11.13;;;9.30;;
20114;SDS011;10218;42.874;25.320;2023-10-19T05:12:20;13.03;;;9.87;;
20114;SDS011;10218;42.874;25.320;2023-10-19T05:14:48;11.50;;;9.37;;
20114;SDS011;10218;42.874;25.320;2023-10-19T05:17:15;12.40;;;9.10;;
20114;SDS011;10218;42.874;25.320;2023-10-19T05:19:42;12.30;;;10.10;;
20114;SDS011;10218;42.874;25.320;2023-10-19T05:22:10;11.13;;;8.50;;
20114;SDS011;10218;42.874;25.320;2023-10-19T05:24:37;14.50;;;9.50;;
20114;SDS011;10218;42.874;25.320;2023-10-19T05:27:04;10.97;;;8.73;;
20114;SDS011;10218;42.874;25.320;2023-10-19T05:29:32;10.73;;;8.60;;
20114;SDS011;10218;42.874;25.320;2023-10-19T05:31:59;10.13;;;8.77;;
20114;SDS011;10218;42.874;25.320;2023-10-19T05:34:27;12.13;;;8.77;;
20114;SDS011;10218;42.874;25.320;2023-10-19T05:36:56;10.77;;;8.30;;
20114;SDS011;10218;42.874;25.320;2023-10-19T05:39:25;12.13;;;8.47;;
20114;SDS011;10218;42.874;25.320;2023-10-19T05:41:55;12.17;;;9.20;;
20114;SDS011;10218;42.874;25.320;2023-10-19T05:44:22;11.00;;;8.70;;
20114;SDS011;10218;42.874;25.320;2023-10-19T05:46:51;11.83;;;8.20;;
20114;SDS011;10218;42.874;25.320;2023-10-19T05:49:18;11.77;;;8.83;;
20114;SDS011;10218;42.874;25.320;2023-10-19T05:51:46;11.17;;;9.03;;
20114;SDS011;10218;42.874;25.320;2023-10-19T05:54:13;12.20;;;8.90;;
20114;SDS011;10218;42.874;25.320;2023-10-19T05:56:40;10.73;;;9.10;;
20114;SDS011;10218;42.874;25.320;2023-10-19T05:59:07;10.23;;;8.33;;
20114;SDS011;10218;42.874;25.320;2023-10-19T06:01:36;13.90;;;9.03;;
20114;SDS011;10218;42.874;25.320;2023-10-19T06:04:04;12.67;;;8.93;;
20114;SDS011;10218;42.874;25.320;2023-10-19T06:06:32;12.57;;;7.70;;
20114;SDS011;10218;42.874;25.320;2023-10-19T06:08:59;9.90;;;7.40;;
20114;SDS011;10218;42.874;25.320;2023-10-19T06:11:30;10.23;;;7.53;;
20114;SDS011;10218;42.874;25.320;2023-10-19T06:13:59;7.87;;;7.07;;
20114;SDS011;10218;42.874;25.320;2023-10-19T06:16:26;9.77;;;7.77;;
20114;SDS011;10218;42.874;25.320;2023-10-19T06:18:54;11.00;;;7.77;;
20114;SDS011;10218;42.874;25.320;2023-10-19T06:21:21;10.23;;;6.93;;
20114;SDS011;10218;42.874;25.320;2023-10-19T06:23:50;8.50;;;7.10;;
20114;SDS011;10218;42.874;25.320;2023-10-19T06:26:19;9.30;;;7.30;;
20114;SDS011;10218;42.874;25.320;2023-10-19T06:28:46;10.27;;;6.93;;
20114;SDS011;10218;42.874;25.320;2023-10-19T06:31:13;8.20;;;6.57;;
20114;SDS011;10218;42.874;25.320;2023-10-19T06:33:42;8.17;;;6.60;;
20114;SDS011;10218;42.874;25.320;2023-10-19T06:36:09;7.90;;;6.70;;
20114;SDS011;10218;42.874;25.320;2023-10-19T06:38:36;8.43;;;6.77;;
20114;SDS011;10218;42.874;25.320;2023-10-19T06:41:10;8.67;;;6.83;;
20114;SDS011;10218;42.874;25.320;2023-10-19T06:43:41;7.70;;;6.33;;
20114;SDS011;10218;42.874;25.320;2023-10-19T06:46:08;7.03;;;5.93;;
20114;SDS011;10218;42.874;25.320;2023-10-19T06:48:38;10.10;;;6.50;;
20114;SDS011;10218;42.874;25.320;2023-10-19T06:51:06;7.57;;;6.23;;
20114;SDS011;10218;42.874;25.320;2023-10-19T06:53:33;10.73;;;6.47;;
20114;SDS011;10218;42.874;25.320;2023-10-19T06:56:01;8.23;;;6.63;;
20114;SDS011;10218;42.874;25.320;2023-10-19T06:58:28;7.07;;;6.17;;
20114;SDS011;10218;42.874;25.320;2023-10-19T07:00:55;9.80;;;6.10;;
20114;SDS011;10218;42.874;25.320;2023-10-19T07:03:34;7.30;;;6.17;;
20114;SDS011;10218;42.874;25.320;2023-10-19T07:06:01;7.70;;;6.33;;
20114;SDS011;10218;42.874;25.320;2023-10-19T07:08:40;10.40;;;7.93;;
20114;SDS011;10218;42.874;25.320;2023-10-19T07:11:10;8.73;;;6.53;;
20114;SDS011;10218;42.874;25.320;2023-10-19T07:13:37;7.73;;;6.53;;
20114;SDS011;10218;42.874;25.320;2023-10-19T07:16:06;9.30;;;6.40;;
20114;SDS011;10218;42.874;25.320;2023-10-19T07:18:38;8.20;;;6.20;;
20114;SDS011;10218;42.874;25.320;2023-10-19T07:21:06;6.87;;;5.93;;
20114;SDS011;10218;42.874;25.320;2023-10-19T07:23:36;7.30;;;6.23;;
20114;SDS011;10218;42.874;25.320;2023-10-19T07:26:07;7.73;;;6.80;;
20114;SDS011;10218;42.874;25.320;2023-10-19T07:28:34;8.77;;;5.50;;
20114;SDS011;10218;42.874;25.320;2023-10-19T07:31:03;6.53;;;5.60;;
20114;SDS011;10218;42.874;25.320;2023-10-19T07:33:42;6.40;;;5.57;;
20114;SDS011;10218;42.874;25.320;2023-10-19T07:36:13;5.47;;;4.47;;
20114;SDS011;10218;42.874;25.320;2023-10-19T07:38:44;9.27;;;6.33;;
20114;SDS011;10218;42.874;25.320;2023-10-19T07:41:13;7.97;;;4.43;;
20114;SDS011;10218;42.874;25.320;2023-10-19T07:43:40;8.93;;;5.50;;
20114;SDS011;10218;42.874;25.320;2023-10-19T07:46:07;6.53;;;4.97;;
20114;SDS011;10218;42.874;25.320;2023-10-19T07:48:35;5.00;;;4.50;;
20114;SDS011;10218;42.874;25.320;2023-10-19T07:51:02;5.77;;;4.27;;
20114;SDS011;10218;42.874;25.320;2023-10-19T07:53:30;7.90;;;4.60;;
20114;SDS011;10218;42.874;25.320;2023-10-19T07:55:57;4.77;;;4.13;;
20114;SDS011;10218;42.874;25.320;2023-10-19T07:58:24;7.87;;;5.03;;
20114;SDS011;10218;42.874;25.320;2023-10-19T08:00:52;8.57;;;4.70;;
20114;SDS011;10218;42.874;25.320;2023-10-19T08:03:20;4.97;;;4.40;;
20114;SDS011;10218;42.874;25.320;2023-10-19T08:05:48;7.17;;;4.07;;
20114;SDS011;10218;42.874;25.320;2023-10-19T08:08:15;5.93;;;4.13;;
20114;SDS011;10218;42.874;25.320;2023-10-19T08:10:42;6.77;;;4.70;;
20114;SDS011;10218;42.874;25.320;2023-10-19T08:13:09;6.63;;;4.03;;
20114;SDS011;10218;42.874;25.320;2023-10-19T08:15:39;5.80;;;4.77;;
20114;SDS011;10218;42.874;25.320;2023-10-19T08:18:07;6.77;;;4.50;;
20114;SDS011;10218;42.874;25.320;2023-10-19T08:20:34;4.33;;;3.80;;
20114;SDS011;10218;42.874;25.320;2023-10-19T08:23:03;9.93;;;4.60;;
20114;SDS011;10218;42.874;25.320;2023-10-19T08:25:32;7.47;;;4.17;;
20114;SDS011;10218;42.874;25.320;2023-10-19T08:28:09;5.23;;;4.40;;
20114;SDS011;10218;42.874;25.320;2023-10-19T08:30:38;8.60;;;4.80;;
20114;SDS011;10218;42.874;25.320;2023-10-19T08:33:07;5.30;;;4.80;;
20114;SDS011;10218;42.874;25.320;2023-10-19T08:35:35;5.30;;;4.20;;
20114;SDS011;10218;42.874;25.320;2023-10-19T08:38:02;7.67;;;4.40;;
20114;SDS011;10218;42.874;25.320;2023-10-19T08:40:36;7.53;;;4.20;;
20114;SDS011;10218;42.874;25.320;2023-10-19T08:43:05;8.20;;;4.70;;
20114;SDS011;10218;42.874;25.320;2023-10-19T08:45:34;5.57;;;4.50;;
20114;SDS011;10218;42.874;25.320;2023-10-19T08:48:01;6.17;;;4.53;;
20114;SDS011;10218;42.874;25.320;2023-10-19T08:50:30;5.43;;;4.23;;
20114;SDS011;10218;42.874;25.320;2023-10-19T08:52:58;8.80;;;4.63;;
20114;SDS011;10218;42.874;25.320;2023-10-19T08:55:27;6.70;;;4.63;;
20114;SDS011;10218;42.874;25.320;2023-10-19T08:57:57;7.17;;;4.50;;
20114;SDS011;10218;42.874;25.320;2023-10-19T09:00:27;7.47;;;4.47;;
20114;SDS011;10218;42.874;25.320;2023-10-19T09:03:01;6.20;;;4.70;;
20114;SDS011;10218;42.874;25.320;2023-10-19T09:05:31;5.40;;;4.50;;
20114;SDS011;10218;42.874;25.320;2023-10-19T09:07:58;5.67;;;4.50;;
20114;SDS011;10218;42.874;25.320;2023-10-19T09:10:27;12.10;;;5.20;;
20114;SDS011;10218;42.874;25.320;2023-10-19T09:12:59;6.40;;;4.50;;
20114;SDS011;10218;42.874;25.320;2023-10-19T09:15:29;7.50;;;4.30;;
20114;SDS011;10218;42.874;25.320;2023-10-19T09:18:15;6.87;;;4.47;;
20114;SDS011;10218;42.874;25.320;2023-10-19T09:20:47;5.37;;;4.40;;
20114;SDS011;10218;42.874;25.320;2023-10-19T09:23:34;5.50;;;4.43;;
20114;SDS011;10218;42.874;25.320;2023-10-19T09:26:03;5.77;;;5.17;;
20114;SDS011;10218;42.874;25.320;2023-10-19T09:28:33;9.57;;;5.67;;
20114;SDS011;10218;42.874;25.320;2023-10-19T09:31:03;16.83;;;9.60;;
20114;SDS011;10218;42.874;25.320;2023-10-19T09:33:34;19.20;;;10.43;;
20114;SDS011;10218;42.874;25.320;2023-10-19T09:36:02;8.43;;;5.13;;
20114;SDS011;10218;42.874;25.320;2023-10-19T09:38:46;7.60;;;5.20;;
20114;SDS011;10218;42.874;25.320;2023-10-19T09:41:16;8.83;;;5.57;;
20114;SDS011;10218;42.874;25.320;2023-10-19T09:43:46;6.27;;;4.10;;
20114;SDS011;10218;42.874;25.320;2023-10-19T09:46:26;7.30;;;4.93;;
20114;SDS011;10218;42.874;25.320;2023-10-19T09:48:56;7.13;;;5.80;;
20114;SDS011;10218;42.874;25.320;2023-10-19T09:51:23;9.07;;;5.47;;
20114;SDS011;10218;42.874;25.320;2023-10-19T09:53:53;11.00;;;6.23;;
20114;SDS011;10218;42.874;25.320;2023-10-19T09:56:42;7.87;;;6.63;;
20114;SDS011;10218;42.874;25.320;2023-10-19T09:59:22;11.00;;;5.77;;
20114;SDS011;10218;42.874;25.320;2023-10-19T10:04:44;6.23;;;4.30;;
20114;SDS011;10218;42.874;25.320;2023-10-19T10:07:12;6.10;;;4.97;;
20114;SDS011;10218;42.874;25.320;2023-10-19T10:09:40;7.67;;;4.80;;
20114;SDS011;10218;42.874;25.320;2023-10-19T10:12:18;10.63;;;5.30;;
20114;SDS011;10218;42.874;25.320;2023-10-19T10:15:08;12.40;;;5.57;;
20114;SDS011;10218;42.874;25.320;2023-10-19T10:17:37;7.07;;;4.90;;
20114;SDS011;10218;42.874;25.320;2023-10-19T10:22:42;7.90;;;5.40;;
20114;SDS011;10218;42.874;25.320;2023-10-19T10:25:27;8.33;;;5.13;;
20114;SDS011;10218;42.874;25.320;2023-10-19T10:27:56;7.70;;;4.97;;
20114;SDS011;10218;42.874;25.320;2023-10-19T10:30:23;6.90;;;5.20;;
20114;SDS011;10218;42.874;25.320;2023-10-19T10:32:51;7.43;;;5.27;;
20114;SDS011;10218;42.874;25.320;2023-10-19T10:38:06;7.33;;;5.40;;
20114;SDS011;10218;42.874;25.320;2023-10-19T10:40:44;6.77;;;5.40;;
20114;SDS011;10218;42.874;25.320;2023-10-19T10:43:11;5.83;;;5.23;;
20114;SDS011;10218;42.874;25.320;2023-10-19T10:45:39;8.17;;;5.53;;
20114;SDS011;10218;42.874;25.320;2023-10-19T10:50:43;7.97;;;5.27;;
20114;SDS011;10218;42.874;25.320;2023-10-19T10:53:12;8.80;;;5.67;;
20114;SDS011;10218;42.874;25.320;2023-10-19T10:55:44;8.90;;;5.40;;
20114;SDS011;10218;42.874;25.320;2023-10-19T10:58:15;5.97;;;4.80;;
20114;SDS011;10218;42.874;25.320;2023-10-19T11:00:43;9.23;;;5.10;;
20114;SDS011;10218;42.874;25.320;2023-10-19T11:03:13;4.80;;;4.30;;
20114;SDS011;10218;42.874;25.320;2023-10-19T11:05:42;10.67;;;5.40;;
20114;SDS011;10218;42.874;25.320;2023-10-19T11:08:13;5.20;;;3.80;;
20114;SDS011;10218;42.874;25.320;2023-10-19T11:10:46;5.47;;;4.20;;
20114;SDS011;10218;42.874;25.320;2023-10-19T11:13:14;7.83;;;4.10;;
20114;SDS011;10218;42.874;25.320;2023-10-19T11:15:49;6.33;;;3.87;;
20114;SDS011;10218;42.874;25.320;2023-10-19T11:18:32;4.83;;;3.70;;
20114;SDS011;10218;42.874;25.320;2023-10-19T11:21:08;26.37;;;6.10;;
20114;SDS011;10218;42.874;25.320;2023-10-19T11:23:40;6.03;;;4.13;;
20114;SDS011;10218;42.874;25.320;2023-10-19T11:26:12;4.27;;;3.60;;
20114;SDS011;10218;42.874;25.320;2023-10-19T11:28:41;5.00;;;4.10;;
20114;SDS011;10218;42.874;25.320;2023-10-19T11:31:21;4.40;;;3.70;;
20114;SDS011;10218;42.874;25.320;2023-10-19T11:33:50;7.37;;;3.83;;
20114;SDS011;10218;42.874;25.320;2023-10-19T11:36:18;4.67;;;4.00;;
20114;SDS011;10218;42.874;25.320;2023-10-19T11:38:47;5.07;;;4.00;;
20114;SDS011;10218;42.874;25.320;2023-10-19T11:41:15;4.10;;;3.63;;
20114;SDS011;10218;42.874;25.320;2023-10-19T11:43:46;6.53;;;3.77;;
20114;SDS011;10218;42.874;25.320;2023-10-19T11:46:15;4.80;;;3.87;;
20114;SDS011;10218;42.874;25.320;2023-10-19T11:48:45;5.77;;;4.30;;
20114;SDS011;10218;42.874;25.320;2023-10-19T11:51:12;4.70;;;4.17;;
20114;SDS011;10218;42.874;25.320;2023-10-19T11:53:40;7.93;;;4.63;;
20114;SDS011;10218;42.874;25.320;2023-10-19T11:56:10;4.50;;;3.93;;
20114;SDS011;10218;42.874;25.320;2023-10-19T11:58:42;7.17;;;3.83;;
20114;SDS011;10218;42.874;25.320;2023-10-19T12:01:13;5.33;;;3.57;;
20114;SDS011;10218;42.874;25.320;2023-10-19T12:03:43;6.67;;;3.87;;
20114;SDS011;10218;42.874;25.320;2023-10-19T12:06:12;10.13;;;4.10;;
20114;SDS011;10218;42.874;25.320;2023-10-19T12:08:45;8.37;;;4.00;;
20114;SDS011;10218;42.874;25.320;2023-10-19T12:11:13;5.23;;;3.67;;
20114;SDS011;10218;42.874;25.320;2023-10-19T12:13:45;4.93;;;3.70;;
20114;SDS011;10218;42.874;25.320;2023-10-19T12:16:14;7.93;;;4.40;;
20114;SDS011;10218;42.874;25.320;2023-10-19T12:18:46;6.33;;;3.67;;
20114;SDS011;10218;42.874;25.320;2023-10-19T12:21:15;4.87;;;3.73;;
20114;SDS011;10218;42.874;25.320;2023-10-19T12:23:44;3.90;;;3.27;;
20114;SDS011;10218;42.874;25.320;2023-10-19T12:26:17;4.13;;;3.23;;
20114;SDS011;10218;42.874;25.320;2023-10-19T12:28:46;3.60;;;3.00;;
20114;SDS011;10218;42.874;25.320;2023-10-19T12:31:15;4.40;;;3.40;;
20114;SDS011;10218;42.874;25.320;2023-10-19T12:33:46;4.67;;;3.23;;
20114;SDS011;10218;42.874;25.320;2023-10-19T12:36:13;7.40;;;3.13;;
20114;SDS011;10218;42.874;25.320;2023-10-19T12:38:55;4.17;;;3.30;;
20114;SDS011;10218;42.874;25.320;2023-10-19T12:41:24;6.63;;;4.33;;
20114;SDS011;10218;42.874;25.320;2023-10-19T12:43:51;3.60;;;2.97;;
20114;SDS011;10218;42.874;25.320;2023-10-19T12:46:39;4.20;;;2.97;;
20114;SDS011;10218;42.874;25.320;2023-10-19T12:49:07;4.70;;;3.10;;
20114;SDS011;10218;42.874;25.320;2023-10-19T12:51:40;3.50;;;3.00;;
20114;SDS011;10218;42.874;25.320;2023-10-19T12:54:08;5.53;;;3.07;;
20114;SDS011;10218;42.874;25.320;2023-10-19T12:56:37;6.87;;;4.73;;
20114;SDS011;10218;42.874;25.320;2023-10-19T12:59:06;4.50;;;3.50;;
20114;SDS011;10218;42.874;25.320;2023-10-19T13:01:34;5.00;;;3.07;;
20114;SDS011;10218;42.874;25.320;2023-10-19T13:04:02;5.30;;;4.00;;
20114;SDS011;10218;42.874;25.320;2023-10-19T13:06:43;37.83;;;19.67;;
20114;SDS011;10218;42.874;25.320;2023-10-19T13:09:11;4.87;;;3.87;;
20114;SDS011;10218;42.874;25.320;2023-10-19T13:11:41;6.80;;;3.67;;
20114;SDS011;10218;42.874;25.320;2023-10-19T13:14:12;3.10;;;2.77;;
20114;SDS011;10218;42.874;25.320;2023-10-19T13:16:39;3.93;;;2.70;;
20114;SDS011;10218;42.874;25.320;2023-10-19T13:19:07;5.23;;;3.33;;
20114;SDS011;10218;42.874;25.320;2023-10-19T13:21:42;9.10;;;3.30;;
20114;SDS011;10218;42.874;25.320;2023-10-19T13:24:10;3.67;;;2.90;;
20114;SDS011;10218;42.874;25.320;2023-10-19T13:26:37;3.90;;;3.40;;
20114;SDS011;10218;42.874;25.320;2023-10-19T13:29:07;6.53;;;3.43;;
20114;SDS011;10218;42.874;25.320;2023-10-19T13:31:34;6.17;;;3.30;;
20114;SDS011;10218;42.874;25.320;2023-10-19T13:34:01;7.80;;;3.67;;
20114;SDS011;10218;42.874;25.320;2023-10-19T13:36:30;4.30;;;3.60;;
20114;SDS011;10218;42.874;25.320;2023-10-19T13:38:57;4.07;;;3.30;;
20114;SDS011;10218;42.874;25.320;2023-10-19T13:41:24;5.83;;;3.60;;
20114;SDS011;10218;42.874;25.320;2023-10-19T13:43:51;4.00;;;3.40;;
20114;SDS011;10218;42.874;25.320;2023-10-19T13:46:18;6.27;;;3.87;;
20114;SDS011;10218;42.874;25.320;2023-10-19T13:48:47;4.70;;;3.60;;
20114;SDS011;10218;42.874;25.320;2023-10-19T13:51:16;6.50;;;4.40;;
20114;SDS011;10218;42.874;25.320;2023-10-19T13:53:45;14.57;;;12.57;;
20114;SDS011;10218;42.874;25.320;2023-10-19T13:56:13;5.27;;;3.80;;
20114;SDS011;10218;42.874;25.320;2023-10-19T13:58:43;8.00;;;4.30;;
20114;SDS011;10218;42.874;25.320;2023-10-19T14:01:13;5.10;;;4.10;;
20114;SDS011;10218;42.874;25.320;2023-10-19T14:03:43;7.67;;;4.60;;
20114;SDS011;10218;42.874;25.320;2023-10-19T14:06:13;7.50;;;5.17;;
20114;SDS011;10218;42.874;25.320;2023-10-19T14:08:40;10.43;;;8.13;;
20114;SDS011;10218;42.874;25.320;2023-10-19T14:11:08;8.97;;;5.07;;
20114;SDS011;10218;42.874;25.320;2023-10-19T14:13:35;5.33;;;4.07;;
20114;SDS011;10218;42.874;25.320;2023-10-19T14:16:06;7.50;;;4.03;;
20114;SDS011;10218;42.874;25.320;2023-10-19T14:18:35;7.87;;;3.90;;
20114;SDS011;10218;42.874;25.320;2023-10-19T14:21:17;8.73;;;3.90;;
20114;SDS011;10218;42.874;25.320;2023-10-19T14:23:46;5.37;;;3.70;;
20114;SDS011;10218;42.874;25.320;2023-10-19T14:26:14;4.80;;;3.70;;
20114;SDS011;10218;42.874;25.320;2023-10-19T14:28:41;6.20;;;4.03;;
20114;SDS011;10218;42.874;25.320;2023-10-19T14:31:09;5.20;;;3.70;;
20114;SDS011;10218;42.874;25.320;2023-10-19T14:33:37;5.93;;;4.30;;
20114;SDS011;10218;42.874;25.320;2023-10-19T14:36:04;4.83;;;3.10;;
20114;SDS011;10218;42.874;25.320;2023-10-19T14:38:32;4.30;;;3.20;;
20114;SDS011;10218;42.874;25.320;2023-10-19T14:40:59;6.20;;;3.53;;
20114;SDS011;10218;42.874;25.320;2023-10-19T14:43:27;4.37;;;3.70;;
20114;SDS011;10218;42.874;25.320;2023-10-19T14:45:56;6.10;;;3.60;;
20114;SDS011;10218;42.874;25.320;2023-10-19T14:48:23;7.37;;;4.23;;
20114;SDS011;10218;42.874;25.320;2023-10-19T14:50:50;10.57;;;4.20;;
20114;SDS011;10218;42.874;25.320;2023-10-19T14:53:18;8.27;;;4.20;;
20114;SDS011;10218;42.874;25.320;2023-10-19T14:55:45;5.43;;;4.43;;